Caruthersville, MO

02:42 PM CDT on Outubro 31, 2014 (GMT -0500)
Dyersburg Municipal | Change Station
CLOSE
Current Station
Airport
Location: Dyersburg,
Elevation: 338 ft
Nearby Weather Stations
Active Advisory: Freeze Warning, Freeze Watch

Elev 338 ft 36.00 °N, 89.41 °W | Updated 7 minutes ago

Moi Anubrado
Moi Anubrado
54 °F
Feels Like 54 °F
N
18
Vento Variable Vento from Norte
Gusts 34 mph

Hoxe
High -- | Low -- °F
--% Chance of Precip.
Yesterday
High -- | Low -- °F
Precip. -- pol
7:20 AM 6:03 PM
Cuarto crescente, 58% visible
Presión 30.16 pol
Visibilidade 10.0 Millas
Nubes Nubes Espalladas 5000 ft
Moi Anubrado 6000 ft
Nivel de Rosada 28 °F
Humidade 38%
Rainfall 0.00 pol
Fondo da neve Not available.
UV 2 out of 12
Pollen 1.20 out of 12
Air Quality Not available.
Flu Activity Not available.
METAR KDYR 311935Z 35016G30KT 10SM SCT050 BKN060 12/M02 A3016 RMK AO1

More Conditions Fewer Conditions

Presión 30.16 pol
Visibilidade 10.0 Millas
Nubes Nubes Espalladas 5000 ft
Moi Anubrado 6000 ft
Nivel de Rosada 28 °F
Humidade 38%
Rainfall 0.00 pol
Fondo da neve Not available.
UV 2 out of 12
Pollen 1.20 out of 12
Air Quality Not available.
Flu Activity Not available.
METAR KDYR 311935Z 35016G30KT 10SM SCT050 BKN060 12/M02 A3016 RMK AO1

More Conditions Fewer Conditions

10-Day Weather Forecast

Almanac

Astronomía

Oct. 31, 2014 Rise Set
Tempo actual
Crepúsculo civil
Crepúsculo náutico
Crepúsculo astronómico
Lúa
Lonxitude da luz visíbel
Length of Day
Tomorrow will be .
, % of the Moon is Illuminated

Today's Extremes

State Highs State Lows

Community

WunderPhotos

Upload Photos

1,766,711 photos uploaded!

WunderBlogs® & News

Nearby

Air Quality

  Air Quality AQ Index Pollutant
Not available.

Snow Depth

Station Depth Elevation

Earthquake Activity

Cidade Distance Mag. Time & Date
Minimum magnitude displayed is 2.5.

Coastal Water Temperatures

Lugar Temperatura

Nearby Weather Stations